createdAt,value
2018-01-26T00:00:01.421Z,0.00
2018-01-26T00:01:01.430Z,0.00
2018-01-26T00:02:01.430Z,0.00
2018-01-26T00:03:01.436Z,0.00
2018-01-26T00:04:01.442Z,0.00
2018-01-26T00:05:01.465Z,0.00
2018-01-26T00:06:01.454Z,0.00
2018-01-26T00:07:01.460Z,0.00
2018-01-26T00:08:01.465Z,0.00
2018-01-26T00:09:01.473Z,0.00
2018-01-26T00:10:01.478Z,0.00
2018-01-26T00:11:01.484Z,0.00
2018-01-26T00:12:01.490Z,0.00
2018-01-26T00:13:01.495Z,0.00
2018-01-26T00:14:01.499Z,0.00
2018-01-26T00:15:01.510Z,0.00
2018-01-26T00:16:01.514Z,0.00
2018-01-26T00:17:01.520Z,0.00
2018-01-26T00:18:01.522Z,0.00
2018-01-26T00:19:01.530Z,0.00
2018-01-26T00:20:01.537Z,0.00
2018-01-26T00:21:01.541Z,0.00
2018-01-26T00:22:01.545Z,0.00
2018-01-26T00:23:01.552Z,0.00
2018-01-26T00:24:01.560Z,0.00
2018-01-26T00:25:01.566Z,0.00
2018-01-26T00:26:01.569Z,0.00
2018-01-26T00:27:01.575Z,0.00
2018-01-26T00:28:01.583Z,0.00
2018-01-26T00:29:01.589Z,0.00
2018-01-26T00:30:01.594Z,0.00
2018-01-26T00:31:01.598Z,0.00
2018-01-26T00:32:01.605Z,0.00
2018-01-26T00:33:01.609Z,0.00
2018-01-26T00:34:01.614Z,0.00
2018-01-26T00:35:01.621Z,0.00
2018-01-26T00:36:01.627Z,0.00
2018-01-26T00:37:01.640Z,0.00
2018-01-26T00:38:01.638Z,0.00
2018-01-26T00:39:01.645Z,0.00
2018-01-26T00:40:01.649Z,0.00
2018-01-26T00:41:01.655Z,0.00
2018-01-26T00:42:01.661Z,0.00
2018-01-26T00:43:01.667Z,0.00
2018-01-26T00:44:01.674Z,0.00
2018-01-26T00:45:01.680Z,0.00
2018-01-26T00:46:01.684Z,0.00
2018-01-26T00:47:01.692Z,0.00
2018-01-26T00:48:01.695Z,0.00
2018-01-26T00:49:01.702Z,0.00
2018-01-26T00:50:01.706Z,0.00
2018-01-26T00:51:01.716Z,0.00
2018-01-26T00:52:01.719Z,0.00
2018-01-26T00:53:01.724Z,0.00
2018-01-26T00:54:01.730Z,0.00
2018-01-26T00:55:01.735Z,0.00
2018-01-26T00:56:01.742Z,0.00
2018-01-26T00:57:01.748Z,0.00
2018-01-26T00:58:01.752Z,0.00
2018-01-26T00:59:01.759Z,0.00
2018-01-26T01:00:01.765Z,0.00
2018-01-26T01:01:01.770Z,0.00
2018-01-26T01:02:01.776Z,0.00
2018-01-26T01:03:01.781Z,0.00
2018-01-26T01:04:01.787Z,0.00
2018-01-26T01:05:01.793Z,0.00
2018-01-26T01:06:01.801Z,0.00
2018-01-26T01:07:01.808Z,0.00
2018-01-26T01:08:01.812Z,0.00
2018-01-26T01:09:01.819Z,0.00
2018-01-26T01:10:01.824Z,0.00
2018-01-26T01:11:01.827Z,0.00
2018-01-26T01:12:01.835Z,0.00
2018-01-26T01:13:01.840Z,0.00
2018-01-26T01:14:01.844Z,0.00
2018-01-26T01:15:01.851Z,0.00
2018-01-26T01:16:01.856Z,0.00
2018-01-26T01:17:01.862Z,0.00
2018-01-26T01:18:01.867Z,0.00
2018-01-26T01:19:01.874Z,0.00
2018-01-26T01:20:01.879Z,0.00
2018-01-26T01:21:01.885Z,0.00
2018-01-26T01:22:01.892Z,0.00
2018-01-26T01:23:01.896Z,0.00
2018-01-26T01:24:01.904Z,0.00
2018-01-26T01:25:01.909Z,0.00
2018-01-26T01:26:01.918Z,0.00
2018-01-26T01:27:01.920Z,0.00
2018-01-26T01:28:01.924Z,0.00
2018-01-26T01:29:01.931Z,0.00
2018-01-26T01:30:01.935Z,0.00
2018-01-26T01:31:01.940Z,0.00
2018-01-26T01:32:01.947Z,0.00
2018-01-26T01:33:01.956Z,0.00
2018-01-26T01:34:01.961Z,0.00
2018-01-26T01:35:01.964Z,0.00
2018-01-26T01:36:01.969Z,0.00
2018-01-26T01:37:01.976Z,0.00
2018-01-26T01:38:01.980Z,0.00
2018-01-26T01:39:01.985Z,0.00
2018-01-26T01:40:01.990Z,0.00
2018-01-26T01:41:01.997Z,0.00
2018-01-26T01:42:02.001Z,0.00
2018-01-26T01:43:02.006Z,0.00
2018-01-26T01:44:02.012Z,0.00
2018-01-26T01:45:02.017Z,0.00
2018-01-26T01:46:02.025Z,0.00
2018-01-26T01:47:02.028Z,0.00
2018-01-26T01:48:02.034Z,0.00
2018-01-26T01:49:02.041Z,0.00
2018-01-26T01:50:02.043Z,0.00
2018-01-26T01:51:02.050Z,0.00
2018-01-26T01:52:02.054Z,0.00
2018-01-26T01:53:02.060Z,0.00
2018-01-26T01:54:02.072Z,0.00
2018-01-26T01:55:02.074Z,0.00
2018-01-26T01:56:02.077Z,0.00
2018-01-26T01:57:02.081Z,0.00
2018-01-26T01:58:02.085Z,0.00
2018-01-26T01:59:02.091Z,0.00
2018-01-26T02:00:02.098Z,0.00
2018-01-26T02:01:02.105Z,0.00
2018-01-26T02:02:02.107Z,0.00
2018-01-26T02:03:02.112Z,0.00
2018-01-26T02:04:02.118Z,0.00
2018-01-26T02:05:02.143Z,0.00
2018-01-26T02:06:02.129Z,0.00
2018-01-26T02:07:02.138Z,0.00
2018-01-26T02:08:02.141Z,0.00
2018-01-26T02:09:02.145Z,0.00
2018-01-26T02:10:02.150Z,0.00
2018-01-26T02:11:02.157Z,0.00
2018-01-26T02:12:02.162Z,0.00
2018-01-26T02:13:02.168Z,0.00
2018-01-26T02:14:02.171Z,0.00
2018-01-26T02:15:02.178Z,0.00
2018-01-26T02:16:02.189Z,0.00
2018-01-26T02:17:02.192Z,0.00
2018-01-26T02:18:02.194Z,0.00
2018-01-26T02:19:02.200Z,0.00
2018-01-26T02:20:02.205Z,0.00
2018-01-26T02:21:02.210Z,0.00
2018-01-26T02:22:02.215Z,0.00
2018-01-26T02:23:02.222Z,0.00
2018-01-26T02:24:02.229Z,0.00
2018-01-26T02:25:02.233Z,0.00
2018-01-26T02:26:02.237Z,0.00
2018-01-26T02:27:02.244Z,0.00
2018-01-26T02:28:02.249Z,0.00
2018-01-26T02:29:02.256Z,0.00
2018-01-26T02:30:02.260Z,0.00
2018-01-26T02:31:02.266Z,0.00
2018-01-26T02:32:02.272Z,0.00
2018-01-26T02:33:02.276Z,0.00
2018-01-26T02:34:02.295Z,0.00
2018-01-26T02:35:02.287Z,0.00
2018-01-26T02:36:02.293Z,0.00
2018-01-26T02:37:02.299Z,0.00
2018-01-26T02:38:02.304Z,0.00
2018-01-26T02:39:02.312Z,0.00
2018-01-26T02:40:02.315Z,0.00
2018-01-26T02:41:02.323Z,0.00
2018-01-26T02:42:02.325Z,0.00
2018-01-26T02:43:02.331Z,0.00
2018-01-26T02:44:02.338Z,0.00
2018-01-26T02:45:02.343Z,0.00
2018-01-26T02:46:02.347Z,0.00
2018-01-26T02:47:02.357Z,0.00
2018-01-26T02:48:02.359Z,0.00
2018-01-26T02:49:02.365Z,0.00
2018-01-26T02:50:02.370Z,0.00
2018-01-26T02:51:02.375Z,0.00
2018-01-26T02:52:02.380Z,0.00
2018-01-26T02:53:02.386Z,0.00
2018-01-26T02:54:02.392Z,0.00
2018-01-26T02:55:02.401Z,0.00
2018-01-26T02:56:02.404Z,0.00
2018-01-26T02:57:02.409Z,0.00
2018-01-26T02:58:02.415Z,0.00
2018-01-26T02:59:02.420Z,0.00
2018-01-26T03:00:02.427Z,0.00
2018-01-26T03:01:02.432Z,0.00
2018-01-26T03:02:02.436Z,0.00
2018-01-26T03:03:02.444Z,0.00
2018-01-26T03:04:02.448Z,0.00
2018-01-26T03:05:02.458Z,0.00
2018-01-26T03:06:02.458Z,0.00
2018-01-26T03:07:02.464Z,0.00
2018-01-26T03:08:02.470Z,0.00
2018-01-26T03:09:02.478Z,0.00
2018-01-26T03:10:02.484Z,0.00
2018-01-26T03:11:02.487Z,0.00
2018-01-26T03:12:02.493Z,0.00
2018-01-26T03:13:02.502Z,0.00
2018-01-26T03:14:02.505Z,0.00
2018-01-26T03:15:02.510Z,0.00
2018-01-26T03:16:02.515Z,0.00
2018-01-26T03:17:02.522Z,0.00
2018-01-26T03:18:02.525Z,0.00
2018-01-26T03:19:02.532Z,0.00
2018-01-26T03:20:02.538Z,0.00
2018-01-26T03:21:02.543Z,0.00
2018-01-26T03:22:02.548Z,0.00
2018-01-26T03:23:02.561Z,0.00
2018-01-26T03:24:02.559Z,0.00
2018-01-26T03:25:02.566Z,0.00
2018-01-26T03:26:02.570Z,0.00
2018-01-26T03:27:02.577Z,0.00
2018-01-26T03:28:02.584Z,0.00
2018-01-26T03:29:02.588Z,0.00
2018-01-26T03:30:02.594Z,0.00
2018-01-26T03:31:02.605Z,0.00
2018-01-26T03:32:02.604Z,0.00
2018-01-26T03:33:02.612Z,0.00
2018-01-26T03:34:02.616Z,0.00
2018-01-26T03:35:02.621Z,0.00
2018-01-26T03:36:02.626Z,0.00
2018-01-26T03:37:02.632Z,0.00
2018-01-26T03:38:02.644Z,0.00
2018-01-26T03:39:02.642Z,0.00
2018-01-26T03:40:02.651Z,0.00
2018-01-26T03:41:02.654Z,0.00
2018-01-26T03:42:02.660Z,0.00
2018-01-26T03:43:02.665Z,0.00
2018-01-26T03:44:02.671Z,0.00
2018-01-26T03:45:02.675Z,0.00
2018-01-26T03:46:02.681Z,0.00
2018-01-26T03:47:02.687Z,0.00
2018-01-26T03:48:02.693Z,0.00
2018-01-26T03:49:02.700Z,0.00
2018-01-26T03:50:02.702Z,0.00
2018-01-26T03:51:02.709Z,0.00
2018-01-26T03:52:02.714Z,0.00
2018-01-26T03:53:02.719Z,0.00
2018-01-26T03:54:02.725Z,0.00
2018-01-26T03:55:02.732Z,0.00
2018-01-26T03:56:02.736Z,0.00
2018-01-26T03:57:02.745Z,0.00
2018-01-26T03:58:02.746Z,0.00
2018-01-26T03:59:02.752Z,0.00
2018-01-26T04:00:02.758Z,0.00
2018-01-26T04:01:02.765Z,0.00
2018-01-26T04:02:02.767Z,0.00
2018-01-26T04:03:02.774Z,0.00
2018-01-26T04:04:02.779Z,0.00
2018-01-26T04:05:02.785Z,0.00
2018-01-26T04:06:02.789Z,0.00
2018-01-26T04:07:02.794Z,0.00
2018-01-26T04:08:02.801Z,0.00
2018-01-26T04:09:02.806Z,0.00
2018-01-26T04:10:02.811Z,0.00
2018-01-26T04:11:02.817Z,0.00
2018-01-26T04:12:02.823Z,0.00
2018-01-26T04:13:02.828Z,0.00
2018-01-26T04:14:02.832Z,0.00
2018-01-26T04:15:02.838Z,0.00
2018-01-26T04:16:02.844Z,0.00
2018-01-26T04:17:02.849Z,0.00
2018-01-26T04:18:02.854Z,0.00
2018-01-26T04:19:02.859Z,0.00
2018-01-26T04:20:02.865Z,0.00
2018-01-26T04:21:02.869Z,0.00
2018-01-26T04:22:02.875Z,0.00
2018-01-26T04:23:02.880Z,0.00
2018-01-26T04:24:02.887Z,0.00
2018-01-26T04:25:02.892Z,0.00
2018-01-26T04:26:02.896Z,0.00
2018-01-26T04:27:02.902Z,0.00
2018-01-26T04:28:02.906Z,0.00
2018-01-26T04:29:02.912Z,0.00
2018-01-26T04:30:02.923Z,0.00
2018-01-26T04:31:02.923Z,0.00
2018-01-26T04:32:02.928Z,0.00
2018-01-26T04:33:02.931Z,0.00
2018-01-26T04:34:02.937Z,0.00
2018-01-26T04:35:02.942Z,0.00
2018-01-26T04:36:02.947Z,0.00
2018-01-26T04:37:02.955Z,0.00
2018-01-26T04:38:02.961Z,0.00
2018-01-26T04:39:02.965Z,0.00
2018-01-26T04:40:02.972Z,0.00
2018-01-26T04:41:02.976Z,0.00
2018-01-26T04:42:02.980Z,0.00
2018-01-26T04:43:02.986Z,0.00
2018-01-26T04:44:02.991Z,0.00
2018-01-26T04:45:02.998Z,0.00
2018-01-26T04:46:03.001Z,0.00
2018-01-26T04:47:03.007Z,0.00
2018-01-26T04:48:03.013Z,0.00
2018-01-26T04:49:03.017Z,0.00
2018-01-26T04:50:03.022Z,0.00
2018-01-26T04:51:03.028Z,0.00
2018-01-26T04:52:03.034Z,0.00
2018-01-26T04:53:03.041Z,0.00
2018-01-26T04:54:03.043Z,0.00
2018-01-26T04:55:03.051Z,0.00
2018-01-26T04:56:03.053Z,0.00
2018-01-26T04:57:03.060Z,0.00
2018-01-26T04:58:03.066Z,0.00
2018-01-26T04:59:03.071Z,0.00
2018-01-26T05:00:03.076Z,0.00
2018-01-26T05:01:03.083Z,0.00
2018-01-26T05:02:03.086Z,0.00
2018-01-26T05:03:03.091Z,0.00
2018-01-26T05:04:03.098Z,0.00
2018-01-26T05:05:03.103Z,0.00
2018-01-26T05:06:03.108Z,0.00
2018-01-26T05:07:03.115Z,0.00
2018-01-26T05:08:03.121Z,0.00
2018-01-26T05:09:03.125Z,0.00
2018-01-26T05:10:03.129Z,0.00
2018-01-26T05:11:03.137Z,0.00
2018-01-26T05:12:03.141Z,0.00
2018-01-26T05:13:03.145Z,0.00
2018-01-26T05:14:03.151Z,0.00
2018-01-26T05:15:03.155Z,0.00
2018-01-26T05:16:03.162Z,0.00
2018-01-26T05:17:03.167Z,0.00
2018-01-26T05:18:03.171Z,0.00
2018-01-26T05:19:03.178Z,0.00
2018-01-26T05:20:03.184Z,0.00
2018-01-26T05:21:03.191Z,0.00
2018-01-26T05:22:03.196Z,0.00
2018-01-26T05:23:03.202Z,0.00
2018-01-26T05:24:03.206Z,0.00
2018-01-26T05:25:03.213Z,0.00
2018-01-26T05:26:03.214Z,0.00
2018-01-26T05:27:03.220Z,0.00
2018-01-26T05:28:03.226Z,0.00
2018-01-26T05:29:03.281Z,0.00
2018-01-26T05:30:03.249Z,0.00
2018-01-26T05:31:03.242Z,0.00
2018-01-26T05:32:03.248Z,0.00
2018-01-26T05:33:03.253Z,0.00
2018-01-26T05:34:03.255Z,0.00
2018-01-26T05:35:03.262Z,0.00
2018-01-26T05:36:03.268Z,0.00
2018-01-26T05:37:03.273Z,0.00
2018-01-26T05:38:03.279Z,0.00
2018-01-26T05:39:03.285Z,0.00
2018-01-26T05:40:03.290Z,0.00
2018-01-26T05:41:03.296Z,0.00
2018-01-26T05:42:03.300Z,0.00
2018-01-26T05:43:03.309Z,0.00
2018-01-26T05:44:03.361Z,0.00
2018-01-26T05:45:03.319Z,0.00
2018-01-26T05:46:03.321Z,0.00
2018-01-26T05:47:03.329Z,0.00
2018-01-26T05:48:03.332Z,0.00
2018-01-26T05:49:03.337Z,0.00
2018-01-26T05:50:03.344Z,0.00
2018-01-26T05:51:03.349Z,0.00
2018-01-26T05:52:03.355Z,0.00
2018-01-26T05:53:03.359Z,0.00
2018-01-26T05:54:03.364Z,0.00
2018-01-26T05:55:03.372Z,0.00
2018-01-26T05:56:03.384Z,0.00
2018-01-26T05:57:03.380Z,0.00
2018-01-26T05:58:03.386Z,0.00
2018-01-26T05:59:03.396Z,0.00
2018-01-26T06:00:03.397Z,0.00
2018-01-26T06:01:03.401Z,0.00
2018-01-26T06:02:03.408Z,0.00
2018-01-26T06:03:03.413Z,0.00
2018-01-26T06:04:03.418Z,0.00
2018-01-26T06:05:03.424Z,0.00
2018-01-26T06:06:03.428Z,0.00
2018-01-26T06:07:03.435Z,0.00
2018-01-26T06:08:03.438Z,0.00
2018-01-26T06:09:03.444Z,0.00
2018-01-26T06:10:03.449Z,0.00
2018-01-26T06:11:03.454Z,0.00
2018-01-26T06:12:03.460Z,0.00
2018-01-26T06:13:03.470Z,0.00
2018-01-26T06:14:03.469Z,0.00
2018-01-26T06:15:03.475Z,0.00
2018-01-26T06:16:03.482Z,0.00
2018-01-26T06:17:03.493Z,0.00
2018-01-26T06:18:03.491Z,0.00
2018-01-26T06:19:03.497Z,0.00
2018-01-26T06:20:03.503Z,0.00
2018-01-26T06:21:03.509Z,0.00
2018-01-26T06:22:03.513Z,0.00
2018-01-26T06:23:03.518Z,0.00
2018-01-26T06:24:03.524Z,0.00
2018-01-26T06:25:03.530Z,0.00
2018-01-26T06:26:03.533Z,0.00
2018-01-26T06:27:03.539Z,0.00
2018-01-26T06:28:03.544Z,0.00
2018-01-26T06:29:03.549Z,0.00
2018-01-26T06:30:03.554Z,0.00
2018-01-26T06:31:03.560Z,0.00
2018-01-26T06:32:03.565Z,0.00
2018-01-26T06:33:03.572Z,0.00
2018-01-26T06:34:03.574Z,0.00
2018-01-26T06:35:03.582Z,0.00
2018-01-26T06:36:03.589Z,0.00
2018-01-26T06:37:03.592Z,0.00
2018-01-26T06:38:03.597Z,0.00
2018-01-26T06:39:03.602Z,0.00
2018-01-26T06:40:03.607Z,0.00
2018-01-26T06:41:03.613Z,0.00
2018-01-26T06:42:03.619Z,0.00
2018-01-26T06:43:03.623Z,0.00
2018-01-26T06:44:03.628Z,0.00
2018-01-26T06:45:03.634Z,0.00
2018-01-26T06:46:03.639Z,0.00
2018-01-26T06:47:03.644Z,0.00
2018-01-26T06:48:03.649Z,0.00
2018-01-26T06:49:03.656Z,0.00
2018-01-26T06:50:03.660Z,0.00
2018-01-26T06:51:03.665Z,0.00
2018-01-26T06:52:03.669Z,0.00
2018-01-26T06:53:03.676Z,0.00
2018-01-26T06:54:03.679Z,0.00
2018-01-26T06:55:03.686Z,0.00
2018-01-26T06:56:03.690Z,0.00
2018-01-26T06:57:03.697Z,0.00
2018-01-26T06:58:03.702Z,0.00
2018-01-26T06:59:03.706Z,0.00
2018-01-26T07:00:03.714Z,0.00
2018-01-26T07:01:03.718Z,0.00
2018-01-26T07:02:03.722Z,0.00
2018-01-26T07:03:03.727Z,0.00
2018-01-26T07:04:03.733Z,0.00
2018-01-26T07:05:03.738Z,0.00
2018-01-26T07:06:03.746Z,0.00
2018-01-26T07:07:03.748Z,0.00
2018-01-26T07:08:03.753Z,0.00
2018-01-26T07:09:03.760Z,0.00
2018-01-26T07:10:03.764Z,0.00
2018-01-26T07:11:03.769Z,0.00
2018-01-26T07:12:03.775Z,0.00
2018-01-26T07:13:03.782Z,0.00
2018-01-26T07:14:03.822Z,0.00
2018-01-26T07:15:03.792Z,0.00
2018-01-26T07:16:03.795Z,0.00
2018-01-26T07:17:03.802Z,0.00
2018-01-26T07:18:03.806Z,0.00
2018-01-26T07:19:03.814Z,0.00
2018-01-26T07:20:03.817Z,0.00
2018-01-26T07:21:03.824Z,0.00
2018-01-26T07:22:03.829Z,0.00
2018-01-26T07:23:03.834Z,0.00
2018-01-26T07:24:03.842Z,0.00
2018-01-26T07:25:03.847Z,0.00
2018-01-26T07:26:03.852Z,0.00
2018-01-26T07:27:03.855Z,0.00
2018-01-26T07:28:03.863Z,0.00
2018-01-26T07:29:03.869Z,0.00
2018-01-26T07:30:03.871Z,5.63
2018-01-26T07:31:03.878Z,5.63
2018-01-26T07:32:03.886Z,5.63
2018-01-26T07:33:03.890Z,5.63
2018-01-26T07:34:03.896Z,5.63
2018-01-26T07:35:03.900Z,5.63
2018-01-26T07:36:03.904Z,5.63
2018-01-26T07:37:03.912Z,5.63
2018-01-26T07:38:03.916Z,5.63
2018-01-26T07:39:03.922Z,5.63
2018-01-26T07:40:03.929Z,5.63
2018-01-26T07:41:03.934Z,5.63
2018-01-26T07:42:03.937Z,5.63
2018-01-26T07:43:03.945Z,5.63
2018-01-26T07:44:03.951Z,5.63
2018-01-26T07:45:03.956Z,5.63
2018-01-26T07:46:03.962Z,5.63
2018-01-26T07:47:03.968Z,5.63
2018-01-26T07:48:03.976Z,5.63
2018-01-26T07:49:03.979Z,5.63
2018-01-26T07:50:03.983Z,5.63
2018-01-26T07:51:03.989Z,5.63
2018-01-26T07:52:03.996Z,5.63
2018-01-26T07:53:04.001Z,5.63
2018-01-26T07:54:04.008Z,5.63
2018-01-26T07:55:04.017Z,5.63
2018-01-26T07:56:04.027Z,5.63
2018-01-26T07:57:04.023Z,5.63
2018-01-26T07:58:04.028Z,5.63
2018-01-26T07:59:04.035Z,5.63
2018-01-26T08:00:04.040Z,5.63
2018-01-26T08:01:04.049Z,5.63
2018-01-26T08:02:04.052Z,5.63
2018-01-26T08:03:04.059Z,5.63
2018-01-26T08:04:04.068Z,11.25
2018-01-26T08:05:04.070Z,11.25
2018-01-26T08:06:04.077Z,11.25
2018-01-26T08:07:04.081Z,11.25
2018-01-26T08:08:04.087Z,11.25
2018-01-26T08:09:04.093Z,11.25
2018-01-26T08:10:04.097Z,11.25
2018-01-26T08:11:04.104Z,11.25
2018-01-26T08:12:04.111Z,11.25
2018-01-26T08:13:04.115Z,11.25
2018-01-26T08:14:04.123Z,11.25
2018-01-26T08:15:04.126Z,11.25
2018-01-26T08:16:04.132Z,11.25
2018-01-26T08:17:04.139Z,11.25
2018-01-26T08:18:04.144Z,16.88
2018-01-26T08:19:04.154Z,16.88
2018-01-26T08:20:04.158Z,16.88
2018-01-26T08:21:04.167Z,16.88
2018-01-26T08:22:04.166Z,16.88
2018-01-26T08:23:04.172Z,16.88
2018-01-26T08:24:04.182Z,16.88
2018-01-26T08:25:04.186Z,16.88
2018-01-26T08:26:04.192Z,16.88
2018-01-26T08:27:04.197Z,16.88
2018-01-26T08:28:04.204Z,16.88
2018-01-26T08:29:04.208Z,16.88
2018-01-26T08:30:04.215Z,16.88
2018-01-26T08:31:04.221Z,22.50
2018-01-26T08:32:04.229Z,28.13
2018-01-26T08:33:04.233Z,33.75
2018-01-26T08:34:04.240Z,33.75
2018-01-26T08:35:04.248Z,39.38
2018-01-26T08:36:04.252Z,33.75
2018-01-26T08:37:04.258Z,22.50
2018-01-26T08:38:04.263Z,16.88
2018-01-26T08:39:04.270Z,39.38
2018-01-26T08:40:04.277Z,33.75
2018-01-26T08:41:04.282Z,22.50
2018-01-26T08:42:04.290Z,22.50
2018-01-26T08:43:04.296Z,22.50
2018-01-26T08:44:04.302Z,22.50
2018-01-26T08:45:04.309Z,22.50
2018-01-26T08:46:04.316Z,22.50
2018-01-26T08:47:04.324Z,22.50
2018-01-26T08:48:04.329Z,22.50
2018-01-26T08:49:04.335Z,22.50
2018-01-26T08:50:04.342Z,22.50
2018-01-26T08:51:04.348Z,22.50
2018-01-26T08:52:04.356Z,22.50
2018-01-26T08:53:04.361Z,22.50
2018-01-26T08:54:04.368Z,22.50
2018-01-26T08:55:04.375Z,22.50
2018-01-26T08:56:04.381Z,22.50
2018-01-26T08:57:04.388Z,22.50
2018-01-26T08:58:04.395Z,22.50
2018-01-26T08:59:04.409Z,22.50
2018-01-26T09:00:04.411Z,22.50
2018-01-26T09:01:04.416Z,22.50
2018-01-26T09:02:04.421Z,22.50
2018-01-26T09:03:04.429Z,22.50
2018-01-26T09:04:04.435Z,22.50
2018-01-26T09:05:04.444Z,22.50
2018-01-26T09:06:04.450Z,22.50
2018-01-26T09:07:04.457Z,22.50
2018-01-26T09:08:04.464Z,28.13
2018-01-26T09:09:04.471Z,28.13
2018-01-26T09:10:04.478Z,28.13
2018-01-26T09:11:04.485Z,33.75
2018-01-26T09:12:04.492Z,33.75
2018-01-26T09:13:04.499Z,33.75
2018-01-26T09:14:04.506Z,39.38
2018-01-26T09:15:04.512Z,33.75
2018-01-26T09:16:04.521Z,39.38
2018-01-26T09:17:04.530Z,39.38
2018-01-26T09:18:04.533Z,33.75
2018-01-26T09:19:04.544Z,33.75
2018-01-26T09:20:04.550Z,33.75
2018-01-26T09:21:04.560Z,28.13
2018-01-26T09:22:04.565Z,28.13
2018-01-26T09:23:04.572Z,33.75
2018-01-26T09:24:04.583Z,45.00
2018-01-26T09:25:04.598Z,33.75
2018-01-26T09:26:04.595Z,33.75
2018-01-26T09:27:04.602Z,33.75
2018-01-26T09:28:04.633Z,33.75
2018-01-26T09:29:04.618Z,28.13
2018-01-26T09:30:04.625Z,28.13
2018-01-26T09:31:04.631Z,28.13
2018-01-26T09:32:04.641Z,22.50
2018-01-26T09:33:04.648Z,22.50
2018-01-26T09:34:04.657Z,28.13
2018-01-26T09:35:04.665Z,28.13
2018-01-26T09:36:04.670Z,28.13
2018-01-26T09:37:04.678Z,33.75
2018-01-26T09:38:04.688Z,33.75
2018-01-26T09:39:04.694Z,33.75
2018-01-26T09:40:04.708Z,33.75
2018-01-26T09:41:04.710Z,33.75
2018-01-26T09:42:04.717Z,33.75
2018-01-26T09:43:04.726Z,33.75
2018-01-26T09:44:04.733Z,33.75
2018-01-26T09:45:04.742Z,33.75
2018-01-26T09:46:04.749Z,33.75
2018-01-26T09:47:04.758Z,39.38
2018-01-26T09:48:04.767Z,39.38
2018-01-26T09:49:04.773Z,39.38
2018-01-26T09:50:04.780Z,39.38
2018-01-26T09:51:04.789Z,39.38
2018-01-26T09:52:04.799Z,39.38
2018-01-26T09:53:04.807Z,39.38
2018-01-26T09:54:04.814Z,39.38
2018-01-26T09:55:04.822Z,39.38
2018-01-26T09:56:04.829Z,39.38
2018-01-26T09:57:04.841Z,39.38
2018-01-26T09:58:04.847Z,39.38
2018-01-26T09:59:04.855Z,39.38
2018-01-26T10:00:04.874Z,39.38
2018-01-26T10:01:04.872Z,39.38
2018-01-26T10:02:04.880Z,39.38
2018-01-26T10:03:04.889Z,45.00
2018-01-26T10:04:04.898Z,61.88
2018-01-26T10:05:04.907Z,45.00
2018-01-26T10:06:04.915Z,39.38
2018-01-26T10:07:04.924Z,39.38
2018-01-26T10:08:04.933Z,39.38
2018-01-26T10:09:04.941Z,61.88
2018-01-26T10:10:04.951Z,39.38
2018-01-26T10:11:04.959Z,33.75
2018-01-26T10:12:04.968Z,39.38
2018-01-26T10:13:04.980Z,45.00
2018-01-26T10:14:04.984Z,45.00
2018-01-26T10:15:04.994Z,45.00
2018-01-26T10:16:05.004Z,39.38
2018-01-26T10:17:05.016Z,33.75
2018-01-26T10:18:05.020Z,45.00
2018-01-26T10:19:05.032Z,84.38
2018-01-26T10:20:05.040Z,78.75
2018-01-26T10:21:05.054Z,73.13
2018-01-26T10:22:05.056Z,95.63
2018-01-26T10:23:05.066Z,90.00
2018-01-26T10:24:05.074Z,95.63
2018-01-26T10:25:05.086Z,101.25
2018-01-26T10:26:05.093Z,33.75
2018-01-26T10:27:05.104Z,67.50
2018-01-26T10:28:05.116Z,106.88
2018-01-26T10:29:05.125Z,45.00
2018-01-26T10:30:05.135Z,45.00
2018-01-26T10:31:05.141Z,101.25
2018-01-26T10:32:05.155Z,56.25
2018-01-26T10:33:05.164Z,56.25
2018-01-26T10:34:05.173Z,73.13
2018-01-26T10:35:05.184Z,73.13
2018-01-26T10:36:05.193Z,90.00
2018-01-26T10:37:05.204Z,50.63
2018-01-26T10:38:05.262Z,45.00
2018-01-26T10:39:05.225Z,45.00
2018-01-26T10:40:05.236Z,45.00
2018-01-26T10:41:05.247Z,45.00
2018-01-26T10:42:05.254Z,84.38
2018-01-26T10:43:05.266Z,45.00
2018-01-26T10:44:05.275Z,39.38
2018-01-26T10:45:05.286Z,39.38
2018-01-26T10:46:05.296Z,39.38
2018-01-26T10:47:05.312Z,39.38
2018-01-26T10:48:05.315Z,45.00
2018-01-26T10:49:05.326Z,39.38
2018-01-26T10:50:05.339Z,39.38
2018-01-26T10:51:05.351Z,39.38
2018-01-26T10:52:05.359Z,39.38
2018-01-26T10:53:05.368Z,39.38
2018-01-26T10:54:05.426Z,39.38
2018-01-26T10:55:05.393Z,39.38
2018-01-26T10:56:05.398Z,39.38
2018-01-26T10:57:05.411Z,33.75
2018-01-26T10:58:05.418Z,33.75
2018-01-26T10:59:05.430Z,39.38
2018-01-26T11:00:05.440Z,39.38
2018-01-26T11:01:05.452Z,33.75
2018-01-26T11:02:05.461Z,33.75
2018-01-26T11:03:05.483Z,33.75
2018-01-26T11:04:05.481Z,33.75
2018-01-26T11:05:05.495Z,33.75
2018-01-26T11:06:05.502Z,33.75
2018-01-26T11:07:05.517Z,39.38
2018-01-26T11:08:05.521Z,39.38
2018-01-26T11:09:05.581Z,39.38
2018-01-26T11:10:05.541Z,39.38
2018-01-26T11:11:05.552Z,39.38
2018-01-26T11:12:05.563Z,39.38
2018-01-26T11:13:05.575Z,45.00
2018-01-26T11:14:05.584Z,45.00
2018-01-26T11:15:05.594Z,50.63
2018-01-26T11:16:05.605Z,45.00
2018-01-26T11:17:05.617Z,50.63
2018-01-26T11:18:05.626Z,56.25
2018-01-26T11:19:05.637Z,56.25
2018-01-26T11:20:05.649Z,61.88
2018-01-26T11:21:05.658Z,101.25
2018-01-26T11:22:05.667Z,112.50
2018-01-26T11:23:05.679Z,56.25
2018-01-26T11:24:05.690Z,56.25
2018-01-26T11:25:05.702Z,56.25
2018-01-26T11:26:05.717Z,50.63
2018-01-26T11:27:05.723Z,56.25
2018-01-26T11:28:05.739Z,67.50
2018-01-26T11:29:05.744Z,123.75
2018-01-26T11:30:05.756Z,112.50
2018-01-26T11:31:05.765Z,61.88
2018-01-26T11:32:05.779Z,95.63
2018-01-26T11:33:05.788Z,95.63
2018-01-26T11:34:05.800Z,101.25
2018-01-26T11:35:05.817Z,95.63
2018-01-26T11:36:05.822Z,118.13
2018-01-26T11:37:05.833Z,112.50
2018-01-26T11:38:05.845Z,67.50
2018-01-26T11:39:05.856Z,95.63
2018-01-26T11:40:05.869Z,106.88
2018-01-26T11:41:05.881Z,112.50
2018-01-26T11:42:05.892Z,90.00
2018-01-26T11:43:05.907Z,67.50
2018-01-26T11:44:05.973Z,67.50
2018-01-26T11:45:05.932Z,61.88
2018-01-26T11:46:05.943Z,67.50
2018-01-26T11:47:05.953Z,78.75
2018-01-26T11:48:06.002Z,50.63
2018-01-26T11:49:05.979Z,56.25
2018-01-26T11:50:05.990Z,84.38
2018-01-26T11:51:06.041Z,95.63
2018-01-26T11:52:06.018Z,90.00
2018-01-26T11:53:06.029Z,84.38
2018-01-26T11:54:06.040Z,95.63
2018-01-26T11:55:06.054Z,101.25
2018-01-26T11:56:06.068Z,95.63
2018-01-26T11:57:06.079Z,101.25
2018-01-26T11:58:06.092Z,56.25
2018-01-26T11:59:06.104Z,106.88
2018-01-26T12:00:06.130Z,95.63
2018-01-26T12:01:06.132Z,90.00
2018-01-26T12:02:06.143Z,101.25
2018-01-26T12:03:06.158Z,106.88
2018-01-26T12:04:06.170Z,106.88
2018-01-26T12:05:06.182Z,95.63
2018-01-26T12:06:06.194Z,67.50
2018-01-26T12:07:06.219Z,78.75
2018-01-26T12:08:06.226Z,78.75
2018-01-26T12:09:06.234Z,73.13
2018-01-26T12:10:06.251Z,84.38
2018-01-26T12:11:06.262Z,90.00
2018-01-26T12:12:06.275Z,101.25
2018-01-26T12:13:06.291Z,101.25
2018-01-26T12:14:06.302Z,106.88
2018-01-26T12:15:06.313Z,84.38
2018-01-26T12:16:06.327Z,73.13
2018-01-26T12:17:06.342Z,90.00
2018-01-26T12:18:06.358Z,95.63
2018-01-26T12:19:06.367Z,84.38
2018-01-26T12:20:06.380Z,90.00
2018-01-26T12:21:06.396Z,90.00
2018-01-26T12:22:06.411Z,84.38
2018-01-26T12:23:06.421Z,78.75
2018-01-26T12:24:06.459Z,84.38
2018-01-26T12:25:06.447Z,95.63
2018-01-26T12:26:06.460Z,78.75
2018-01-26T12:27:06.473Z,90.00
2018-01-26T12:28:06.489Z,90.00
2018-01-26T12:29:06.501Z,61.88
2018-01-26T12:30:06.515Z,50.63
2018-01-26T12:31:06.527Z,56.25
2018-01-26T12:32:06.541Z,56.25
2018-01-26T12:33:06.554Z,61.88
2018-01-26T12:34:06.566Z,67.50
2018-01-26T12:35:06.579Z,78.75
2018-01-26T12:36:06.592Z,73.13
2018-01-26T12:37:06.609Z,61.88
2018-01-26T12:38:06.618Z,73.13
2018-01-26T12:39:06.633Z,61.88
2018-01-26T12:40:06.645Z,50.63
2018-01-26T12:41:06.659Z,50.63
2018-01-26T12:42:06.671Z,50.63
2018-01-26T12:43:06.686Z,56.25
2018-01-26T12:44:06.698Z,56.25
2018-01-26T12:45:06.715Z,56.25
2018-01-26T12:46:06.722Z,61.88
2018-01-26T12:47:06.736Z,61.88
2018-01-26T12:48:06.749Z,67.50
2018-01-26T12:49:06.761Z,67.50
2018-01-26T12:50:06.774Z,84.38
2018-01-26T12:51:06.790Z,84.38
2018-01-26T12:52:06.804Z,78.75
2018-01-26T12:53:06.812Z,90.00
2018-01-26T12:54:06.825Z,112.50
2018-01-26T12:55:06.838Z,112.50
2018-01-26T12:56:06.851Z,118.13
2018-01-26T12:57:06.863Z,101.25
2018-01-26T12:58:06.875Z,106.88
2018-01-26T12:59:06.939Z,84.38
2018-01-26T13:00:06.903Z,78.75
2018-01-26T13:01:06.916Z,78.75
2018-01-26T13:02:06.928Z,84.38
2018-01-26T13:03:06.942Z,90.00
2018-01-26T13:04:06.956Z,78.75
2018-01-26T13:05:06.971Z,61.88
2018-01-26T13:06:06.982Z,90.00
2018-01-26T13:07:06.996Z,95.63